createdAt,value
2018-03-02T00:02:26.106Z,27.87
2018-03-02T00:04:53.709Z,24.27
2018-03-02T00:07:22.052Z,27.37
2018-03-02T00:09:49.656Z,27.37
2018-03-02T00:12:17.992Z,25.70
2018-03-02T00:14:45.581Z,27.40
2018-03-02T00:17:13.163Z,26.50
2018-03-02T00:19:40.757Z,26.27
2018-03-02T00:22:08.354Z,25.90
2018-03-02T00:24:35.921Z,25.00
2018-03-02T00:27:03.566Z,25.73
2018-03-02T00:29:31.144Z,26.67
2018-03-02T00:31:58.741Z,27.43
2018-03-02T00:34:26.312Z,26.53
2018-03-02T00:36:53.931Z,28.67
2018-03-02T00:39:21.506Z,27.20
2018-03-02T00:41:49.104Z,28.53
2018-03-02T00:44:16.679Z,26.13
2018-03-02T00:46:44.265Z,26.43
2018-03-02T00:49:11.829Z,28.10
2018-03-02T00:51:39.416Z,25.87
2018-03-02T00:54:06.989Z,27.07
2018-03-02T00:56:34.580Z,26.07
2018-03-02T00:59:02.158Z,25.43
2018-03-02T01:01:29.784Z,28.10
2018-03-02T01:03:57.354Z,26.60
2018-03-02T01:06:25.001Z,26.40
2018-03-02T01:08:52.597Z,26.40
2018-03-02T01:11:20.964Z,27.17
2018-03-02T01:13:48.571Z,27.70
2018-03-02T01:16:16.161Z,26.30
2018-03-02T01:18:43.733Z,28.80
2018-03-02T01:21:11.322Z,27.53
2018-03-02T01:23:40.363Z,29.43
2018-03-02T01:26:07.964Z,23.80
2018-03-02T01:28:35.529Z,26.50
2018-03-02T01:31:03.890Z,26.37
2018-03-02T01:33:32.225Z,26.57
2018-03-02T01:35:59.824Z,27.20
2018-03-02T01:38:27.405Z,27.17
2018-03-02T01:40:54.977Z,27.20
2018-03-02T01:43:22.565Z,24.40
2018-03-02T01:45:50.146Z,24.43
2018-03-02T01:48:17.758Z,26.90
2018-03-02T01:50:45.324Z,27.03
2018-03-02T01:53:12.930Z,26.30
2018-03-02T01:55:40.509Z,27.00
2018-03-02T01:58:08.105Z,28.13
2018-03-02T02:00:35.711Z,28.70
2018-03-02T02:03:03.314Z,27.53
2018-03-02T02:05:30.894Z,28.90
2018-03-02T02:07:58.493Z,26.97
2018-03-02T02:10:26.070Z,29.90
2018-03-02T02:12:53.663Z,28.40
2018-03-02T02:15:21.229Z,28.40
2018-03-02T02:17:48.818Z,28.27
2018-03-02T02:20:16.385Z,27.83
2018-03-02T02:22:43.978Z,26.70
2018-03-02T02:25:11.545Z,28.13
2018-03-02T02:27:39.141Z,29.40
2018-03-02T02:30:06.714Z,27.80
2018-03-02T02:32:34.311Z,29.97
2018-03-02T02:35:02.643Z,29.03
2018-03-02T02:37:30.237Z,28.30
2018-03-02T02:39:58.572Z,29.30
2018-03-02T02:42:26.171Z,28.53
2018-03-02T02:44:53.745Z,29.80
2018-03-02T02:47:22.086Z,29.03
2018-03-02T02:49:49.673Z,30.03
2018-03-02T02:52:17.246Z,28.73
2018-03-02T02:54:44.838Z,31.53
2018-03-02T02:57:12.415Z,28.37
2018-03-02T02:59:40.014Z,27.00
2018-03-02T03:02:08.346Z,28.43
2018-03-02T03:04:35.945Z,29.60
2018-03-02T03:07:03.513Z,28.60
2018-03-02T03:09:31.117Z,28.40
2018-03-02T03:11:58.727Z,30.83
2018-03-02T03:14:26.773Z,30.63
2018-03-02T03:16:54.341Z,29.77
2018-03-02T03:19:22.688Z,28.67
2018-03-02T03:21:50.249Z,28.40
2018-03-02T03:24:17.842Z,29.93
2018-03-02T03:26:45.422Z,27.60
2018-03-02T03:29:13.014Z,28.37
2018-03-02T03:31:40.587Z,30.03
2018-03-02T03:34:08.177Z,30.03
2018-03-02T03:36:36.513Z,28.63
2018-03-02T03:39:04.100Z,29.30
2018-03-02T03:41:31.669Z,32.00
2018-03-02T03:44:00.026Z,29.17
2018-03-02T03:46:28.042Z,26.83
2018-03-02T03:48:55.711Z,30.00
2018-03-02T03:51:23.302Z,30.00
2018-03-02T03:53:50.875Z,28.40
2018-03-02T03:56:18.465Z,31.50
2018-03-02T03:58:46.029Z,25.83
2018-03-02T04:01:15.311Z,30.50
2018-03-02T04:03:42.880Z,34.97
2018-03-02T04:06:10.461Z,30.70
2018-03-02T04:08:38.026Z,30.83
2018-03-02T04:11:05.617Z,28.87
2018-03-02T04:13:33.183Z,30.93
2018-03-02T04:16:00.815Z,32.80
2018-03-02T04:18:28.376Z,32.30
2018-03-02T04:20:55.969Z,31.23
2018-03-02T04:23:23.537Z,30.07
2018-03-02T04:25:51.159Z,33.70
2018-03-02T04:28:18.753Z,30.60
2018-03-02T04:30:46.349Z,33.33
2018-03-02T04:33:13.931Z,29.30
2018-03-02T04:35:41.513Z,29.40
2018-03-02T04:38:09.086Z,30.80
2018-03-02T04:40:36.700Z,31.13
2018-03-02T04:43:04.300Z,30.10
2018-03-02T04:45:31.911Z,29.33
2018-03-02T04:47:59.544Z,33.13
2018-03-02T04:50:27.117Z,31.80
2018-03-02T04:52:54.693Z,32.90
2018-03-02T04:55:22.294Z,33.27
2018-03-02T04:57:49.869Z,29.80
2018-03-02T05:00:17.472Z,32.67
2018-03-02T05:02:45.063Z,31.67
2018-03-02T05:05:12.653Z,31.10
2018-03-02T05:07:40.266Z,33.40
2018-03-02T05:10:07.848Z,34.83
2018-03-02T05:12:35.450Z,33.20
2018-03-02T05:15:03.906Z,31.60
2018-03-02T05:17:31.490Z,36.17
2018-03-02T05:19:59.074Z,37.67
2018-03-02T05:22:26.673Z,32.07
2018-03-02T05:24:54.530Z,31.70
2018-03-02T05:27:22.178Z,32.67
2018-03-02T05:29:49.750Z,33.60
2018-03-02T05:32:17.370Z,31.80
2018-03-02T05:34:44.933Z,32.50
2018-03-02T05:37:12.533Z,31.90
2018-03-02T05:39:40.132Z,32.60
2018-03-02T05:42:08.480Z,30.77
2018-03-02T05:44:36.053Z,35.20
2018-03-02T05:47:03.656Z,32.70
2018-03-02T05:49:31.225Z,32.10
2018-03-02T05:51:58.832Z,34.27
2018-03-02T05:54:27.163Z,34.93
2018-03-02T05:56:54.797Z,32.67
2018-03-02T05:59:22.393Z,34.20
2018-03-02T06:01:49.994Z,33.80
2018-03-02T06:04:18.354Z,37.30
2018-03-02T06:06:45.944Z,32.87
2018-03-02T06:09:13.524Z,35.60
2018-03-02T06:11:41.136Z,36.10
2018-03-02T06:14:08.729Z,35.60
2018-03-02T06:16:36.348Z,36.20
2018-03-02T06:19:03.969Z,33.90
2018-03-02T06:21:31.537Z,33.90
2018-03-02T06:23:59.149Z,35.00
2018-03-02T06:26:27.485Z,35.03
2018-03-02T06:28:55.084Z,35.00
2018-03-02T06:31:22.663Z,34.00
2018-03-02T06:33:51.034Z,33.53
2018-03-02T06:36:18.614Z,36.23
2018-03-02T06:38:46.249Z,31.17
2018-03-02T06:41:13.827Z,36.10
2018-03-02T06:43:41.437Z,34.70
2018-03-02T06:46:09.017Z,34.93
2018-03-02T06:48:37.389Z,29.40
2018-03-02T06:51:05.733Z,35.13
2018-03-02T06:53:33.340Z,35.73
2018-03-02T06:56:01.692Z,36.83
2018-03-02T06:58:29.306Z,35.70
2018-03-02T07:00:56.893Z,34.30
2018-03-02T07:03:24.485Z,32.40
2018-03-02T07:05:52.062Z,34.20
2018-03-02T07:08:19.658Z,35.80
2018-03-02T07:10:47.241Z,34.97
2018-03-02T07:13:14.838Z,35.43
2018-03-02T07:15:42.413Z,34.43
2018-03-02T07:18:10.018Z,36.00
2018-03-02T07:20:37.585Z,31.83
2018-03-02T07:23:05.182Z,39.03
2018-03-02T07:25:32.783Z,33.50
2018-03-02T07:28:01.116Z,36.40
2018-03-02T07:30:28.764Z,34.03
2018-03-02T07:32:57.923Z,34.77
2018-03-02T07:35:25.514Z,34.77
2018-03-02T07:37:53.854Z,36.10
2018-03-02T07:40:21.455Z,36.37
2018-03-02T07:42:49.017Z,34.27
2018-03-02T07:45:16.600Z,35.53
2018-03-02T07:47:44.165Z,34.87
2018-03-02T07:50:11.757Z,35.80
2018-03-02T07:52:39.334Z,36.10
2018-03-02T07:55:06.978Z,35.97
2018-03-02T07:57:34.550Z,32.77
2018-03-02T08:00:02.225Z,35.30
2018-03-02T08:02:30.557Z,35.03
2018-03-02T08:04:58.150Z,36.27
2018-03-02T08:07:25.717Z,35.63
2018-03-02T08:09:53.318Z,35.07
2018-03-02T08:12:20.885Z,33.03
2018-03-02T08:14:48.937Z,37.63
2018-03-02T08:17:16.506Z,37.77
2018-03-02T08:19:44.102Z,34.67
2018-03-02T08:22:11.675Z,37.10
2018-03-02T08:24:39.278Z,35.53
2018-03-02T08:27:06.842Z,35.60
2018-03-02T08:29:34.439Z,36.33
2018-03-02T08:32:02.005Z,36.07
2018-03-02T08:34:29.600Z,35.87
2018-03-02T08:36:57.167Z,37.10
2018-03-02T08:39:24.732Z,35.70
2018-03-02T08:41:52.322Z,34.47
2018-03-02T08:44:19.898Z,35.73
2018-03-02T08:46:47.490Z,36.57
2018-03-02T08:49:15.061Z,34.00
2018-03-02T08:51:42.649Z,35.30
2018-03-02T08:54:10.213Z,34.77
2018-03-02T08:56:37.800Z,33.50
2018-03-02T08:59:05.360Z,34.20
2018-03-02T09:01:32.950Z,34.80
2018-03-02T09:04:00.517Z,35.20
2018-03-02T09:06:28.111Z,35.83
2018-03-02T09:08:55.678Z,33.20
2018-03-02T09:11:23.274Z,35.07
2018-03-02T09:13:50.841Z,35.90
2018-03-02T09:16:19.203Z,33.73
2018-03-02T09:18:47.628Z,36.27
2018-03-02T09:21:15.212Z,35.67
2018-03-02T09:23:43.122Z,33.33
2018-03-02T09:26:11.477Z,36.60
2018-03-02T09:28:39.048Z,35.23
2018-03-02T09:31:07.405Z,36.63
2018-03-02T09:33:34.965Z,37.07
2018-03-02T09:36:02.557Z,37.47
2018-03-02T09:38:30.898Z,35.20
2018-03-02T09:40:58.496Z,36.13
2018-03-02T09:43:26.061Z,37.23
2018-03-02T09:45:53.841Z,36.90
2018-03-02T09:48:22.228Z,37.50
2018-03-02T09:50:49.793Z,38.93
2018-03-02T09:53:17.382Z,39.67
2018-03-02T09:55:44.950Z,35.77
2018-03-02T09:58:12.540Z,37.97
2018-03-02T10:00:40.198Z,37.00
2018-03-02T10:03:07.801Z,37.83
2018-03-02T10:05:35.365Z,35.27
2018-03-02T10:08:03.049Z,37.47
2018-03-02T10:10:30.649Z,38.43
2018-03-02T10:12:58.240Z,36.43
2018-03-02T10:15:26.600Z,35.13
2018-03-02T10:17:54.201Z,37.17
2018-03-02T10:20:24.674Z,37.27
2018-03-02T10:22:52.270Z,38.70
2018-03-02T10:25:19.837Z,39.77
2018-03-02T10:27:47.434Z,39.60
2018-03-02T10:30:16.574Z,37.20
2018-03-02T10:32:44.186Z,40.63
2018-03-02T10:35:12.522Z,36.50
2018-03-02T10:37:40.112Z,39.40
2018-03-02T10:40:07.683Z,36.03
2018-03-02T10:42:36.043Z,38.10
2018-03-02T10:45:03.623Z,37.40
2018-03-02T10:47:31.218Z,36.60
2018-03-02T10:49:58.790Z,38.10
2018-03-02T10:52:26.395Z,33.77
2018-03-02T10:54:54.728Z,37.10
2018-03-02T10:57:22.334Z,36.10
2018-03-02T10:59:50.672Z,38.90
2018-03-02T11:02:21.029Z,37.00
2018-03-02T11:04:49.380Z,37.70
2018-03-02T11:07:16.944Z,35.37
2018-03-02T11:09:44.550Z,35.77
2018-03-02T11:12:12.121Z,34.73
2018-03-02T11:14:39.730Z,35.40
2018-03-02T11:17:07.298Z,35.80
2018-03-02T11:19:35.672Z,37.37
2018-03-02T11:22:04.011Z,36.60
2018-03-02T11:24:31.614Z,37.30
2018-03-02T11:26:59.182Z,35.33
2018-03-02T11:29:27.542Z,39.93
2018-03-02T11:31:55.118Z,37.17
2018-03-02T11:34:22.718Z,36.00
2018-03-02T11:36:50.302Z,36.93
2018-03-02T11:39:17.905Z,37.33
2018-03-02T11:41:45.468Z,35.30
2018-03-02T11:44:13.067Z,36.67
2018-03-02T11:46:40.652Z,35.67
2018-03-02T11:49:08.258Z,36.83
2018-03-02T11:51:35.830Z,36.93
2018-03-02T11:54:03.422Z,39.30
2018-03-02T11:56:31.785Z,36.63
2018-03-02T11:58:59.386Z,39.43
2018-03-02T12:01:26.984Z,37.57
2018-03-02T12:03:54.571Z,36.13
2018-03-02T12:06:22.150Z,37.33
2018-03-02T12:08:49.763Z,40.57
2018-03-02T12:11:17.332Z,41.20
2018-03-02T12:13:44.931Z,37.10
2018-03-02T12:16:13.272Z,38.67
2018-03-02T12:18:40.878Z,37.53
2018-03-02T12:21:08.440Z,37.53
2018-03-02T12:23:36.805Z,36.47
2018-03-02T12:26:04.394Z,39.80
2018-03-02T12:28:31.978Z,36.90
2018-03-02T12:30:59.607Z,40.07
2018-03-02T12:33:27.934Z,38.93
2018-03-02T12:35:55.565Z,41.67
2018-03-02T12:38:23.146Z,41.40
2018-03-02T12:40:50.742Z,40.67
2018-03-02T12:43:18.314Z,41.07
2018-03-02T12:45:46.673Z,40.70
2018-03-02T12:48:14.245Z,37.73
2018-03-02T12:50:43.401Z,39.97
2018-03-02T12:53:10.969Z,42.43
2018-03-02T12:55:39.433Z,40.80
2018-03-02T12:58:07.034Z,41.70
2018-03-02T13:00:34.637Z,39.40
2018-03-02T13:03:02.222Z,39.07
2018-03-02T13:05:31.325Z,39.90
2018-03-02T13:07:58.891Z,41.43
2018-03-02T13:10:26.483Z,40.37
2018-03-02T13:12:54.044Z,43.23
2018-03-02T13:15:21.630Z,42.00
2018-03-02T13:17:49.196Z,40.33
2018-03-02T13:20:16.794Z,42.37
2018-03-02T13:22:44.362Z,39.70
2018-03-02T13:25:11.959Z,39.03
2018-03-02T13:27:51.241Z,41.60
2018-03-02T13:30:18.835Z,41.43
2018-03-02T13:32:58.108Z,39.77
2018-03-02T13:35:25.701Z,41.10
2018-03-02T13:37:54.029Z,37.93
2018-03-02T13:40:33.324Z,39.10
2018-03-02T13:43:01.690Z,41.03
2018-03-02T13:45:29.292Z,39.70
2018-03-02T13:51:08.698Z,42.17
2018-03-02T13:53:36.267Z,41.03
2018-03-02T13:56:04.629Z,42.80
2018-03-02T13:58:32.211Z,41.97
2018-03-02T14:01:00.399Z,40.97
2018-03-02T14:03:40.525Z,38.87
2018-03-02T14:06:09.346Z,37.77
2018-03-02T14:08:37.459Z,39.77
2018-03-02T14:11:05.093Z,38.93
2018-03-02T14:13:32.660Z,39.77
2018-03-02T14:16:00.245Z,39.30
2018-03-02T14:18:27.816Z,38.97
2018-03-02T14:20:55.389Z,38.83
2018-03-02T14:23:22.982Z,42.70
2018-03-02T14:25:50.544Z,41.73
2018-03-02T14:28:18.144Z,41.33
2018-03-02T14:30:45.713Z,38.63
2018-03-02T14:33:13.309Z,39.43
2018-03-02T14:35:40.884Z,39.37
2018-03-02T14:38:09.248Z,37.93
2018-03-02T14:40:37.089Z,40.17
2018-03-02T14:43:06.140Z,39.43
2018-03-02T14:45:33.710Z,37.57
2018-03-02T14:48:01.302Z,39.57
2018-03-02T14:50:29.003Z,37.50
2018-03-02T14:52:56.783Z,40.60
2018-03-02T14:55:24.359Z,38.77
2018-03-02T14:57:51.960Z,38.70
2018-03-02T15:00:19.606Z,38.40
2018-03-02T15:02:47.201Z,36.80
2018-03-02T15:05:14.770Z,39.90
2018-03-02T15:07:42.361Z,39.93
2018-03-02T15:10:09.933Z,39.17
2018-03-02T15:12:38.300Z,40.10
2018-03-02T15:15:05.869Z,38.27
2018-03-02T15:17:35.249Z,39.63
2018-03-02T15:20:02.826Z,39.43
2018-03-02T15:22:30.406Z,40.07
2018-03-02T15:24:58.762Z,39.67
2018-03-02T15:27:26.361Z,37.83
2018-03-02T15:29:54.137Z,39.93
2018-03-02T15:32:21.721Z,40.10
2018-03-02T15:34:49.314Z,40.63
2018-03-02T15:37:17.649Z,38.90
2018-03-02T15:39:45.236Z,39.00
2018-03-02T15:42:12.978Z,37.87
2018-03-02T15:44:40.592Z,41.80
2018-03-02T15:47:08.507Z,40.60
2018-03-02T15:49:37.176Z,40.50
2018-03-02T15:52:04.714Z,38.53
2018-03-02T15:54:32.311Z,39.77
2018-03-02T15:56:59.885Z,41.80
2018-03-02T15:59:27.478Z,37.60
2018-03-02T16:01:55.072Z,38.40
2018-03-02T16:04:22.694Z,39.30
2018-03-02T16:06:50.266Z,40.63
2018-03-02T16:09:17.929Z,40.80
2018-03-02T16:11:45.527Z,42.00
2018-03-02T16:14:13.924Z,39.93
2018-03-02T16:16:41.629Z,42.30
2018-03-02T16:19:09.253Z,54.37
2018-03-02T16:21:38.194Z,44.80
2018-03-02T16:24:06.057Z,46.87
2018-03-02T16:26:34.325Z,57.80
2018-03-02T16:29:01.936Z,47.20
2018-03-02T16:31:30.068Z,43.57
2018-03-02T16:33:57.668Z,42.97
2018-03-02T16:36:26.528Z,43.43
2018-03-02T16:38:54.457Z,45.23
2018-03-02T16:41:22.079Z,43.43
2018-03-02T16:43:50.527Z,47.77
2018-03-02T16:46:18.351Z,47.70
2018-03-02T16:48:46.766Z,50.70
2018-03-02T16:51:14.353Z,46.33
2018-03-02T16:53:41.927Z,49.90
2018-03-02T16:56:09.521Z,46.37
2018-03-02T16:58:37.107Z,48.27
2018-03-02T17:01:04.699Z,48.57
2018-03-02T17:03:32.279Z,49.10
2018-03-02T17:05:59.905Z,49.93
2018-03-02T17:08:27.473Z,48.97
2018-03-02T17:10:55.106Z,47.43
2018-03-02T17:13:22.867Z,52.23
2018-03-02T17:15:50.466Z,51.40
2018-03-02T17:18:18.045Z,50.37
2018-03-02T17:20:45.875Z,48.30
2018-03-02T17:23:14.246Z,48.40
2018-03-02T17:25:41.911Z,52.37
2018-03-02T17:28:10.254Z,51.33
2018-03-02T17:30:38.633Z,49.83
2018-03-02T17:33:06.206Z,50.07
2018-03-02T17:35:33.814Z,49.50
2018-03-02T17:38:02.154Z,50.47
2018-03-02T17:40:29.745Z,50.00
2018-03-02T17:42:57.322Z,50.03
2018-03-02T17:45:25.852Z,48.03
2018-03-02T17:47:53.806Z,49.20
2018-03-02T17:50:21.404Z,52.57
2018-03-02T17:52:48.985Z,50.70
2018-03-02T17:55:17.316Z,49.53
2018-03-02T17:57:44.905Z,52.93
2018-03-02T18:00:13.043Z,50.50
2018-03-02T18:02:40.651Z,53.90
2018-03-02T18:05:08.983Z,50.87
2018-03-02T18:07:36.600Z,47.53
2018-03-02T18:10:04.169Z,51.60
2018-03-02T18:12:31.796Z,52.33
2018-03-02T18:14:59.365Z,54.10
2018-03-02T18:17:26.967Z,50.70
2018-03-02T18:19:54.530Z,54.27
2018-03-02T18:22:22.144Z,50.83
2018-03-02T18:24:50.485Z,52.00
2018-03-02T18:27:18.526Z,51.87
2018-03-02T18:29:46.086Z,51.13
2018-03-02T18:32:13.685Z,55.23
2018-03-02T18:34:41.253Z,53.27
2018-03-02T18:37:08.845Z,51.47
2018-03-02T18:39:36.419Z,53.43
2018-03-02T18:42:04.012Z,53.40
2018-03-02T18:44:31.589Z,54.00
2018-03-02T18:46:59.197Z,55.20
2018-03-02T18:49:26.770Z,52.27
2018-03-02T18:51:54.365Z,54.77
2018-03-02T18:54:21.955Z,53.60
2018-03-02T18:56:49.552Z,53.73
2018-03-02T18:59:17.125Z,53.07
2018-03-02T19:01:44.738Z,54.77
2018-03-02T19:04:12.318Z,51.93
2018-03-02T19:06:39.886Z,52.20
2018-03-02T19:09:07.522Z,53.33
2018-03-02T19:11:35.836Z,54.57
2018-03-02T19:14:03.476Z,54.70
2018-03-02T19:16:31.106Z,54.57
2018-03-02T19:18:59.471Z,55.73
2018-03-02T19:21:27.810Z,55.77
2018-03-02T19:23:55.422Z,54.77
2018-03-02T19:26:23.018Z,56.80
2018-03-02T19:28:50.600Z,60.20
2018-03-02T19:31:18.173Z,62.00
2018-03-02T19:33:45.771Z,63.80
2018-03-02T19:36:13.349Z,57.40
2018-03-02T19:38:40.936Z,60.50
2018-03-02T19:41:08.510Z,57.30
2018-03-02T19:43:36.132Z,57.23
2018-03-02T19:46:03.704Z,58.50
2018-03-02T19:48:31.309Z,57.47
2018-03-02T19:50:58.881Z,58.10
2018-03-02T19:53:26.474Z,59.47
2018-03-02T19:55:54.040Z,61.07
2018-03-02T19:58:21.629Z,59.53
2018-03-02T20:00:49.196Z,61.10
2018-03-02T20:03:16.788Z,64.37
2018-03-02T20:05:44.638Z,59.57
2018-03-02T20:08:12.521Z,60.77
2018-03-02T20:10:40.237Z,57.90
2018-03-02T20:13:11.634Z,62.13
2018-03-02T20:15:39.357Z,59.30
2018-03-02T20:18:08.618Z,62.90
2018-03-02T20:20:36.368Z,66.00
2018-03-02T20:23:04.084Z,61.87
2018-03-02T20:25:32.461Z,62.30
2018-03-02T20:28:00.810Z,63.90
2018-03-02T20:30:28.423Z,61.07
2018-03-02T20:32:56.078Z,64.47
2018-03-02T20:35:23.685Z,63.40
2018-03-02T20:37:51.254Z,64.33
2018-03-02T20:40:18.849Z,64.37
2018-03-02T20:42:46.420Z,72.07
2018-03-02T20:45:14.042Z,67.50
2018-03-02T20:47:41.613Z,65.70
2018-03-02T20:50:09.213Z,63.90
2018-03-02T20:52:36.823Z,65.70
2018-03-02T20:55:04.399Z,66.07
2018-03-02T20:57:32.741Z,60.73
2018-03-02T21:00:00.342Z,60.47
2018-03-02T21:02:27.918Z,61.87
2018-03-02T21:04:55.518Z,61.93
2018-03-02T21:07:23.089Z,60.30
2018-03-02T21:09:50.682Z,62.37
2018-03-02T21:12:19.027Z,66.00
2018-03-02T21:14:46.620Z,62.70
2018-03-02T21:17:14.959Z,60.23
2018-03-02T21:19:42.553Z,62.90
2018-03-02T21:22:10.121Z,61.40
2018-03-02T21:24:37.722Z,65.67
2018-03-02T21:27:05.288Z,62.37
2018-03-02T21:29:32.909Z,61.07
2018-03-02T21:32:00.480Z,64.90
2018-03-02T21:34:28.117Z,59.73
2018-03-02T21:36:55.665Z,63.17
2018-03-02T21:39:23.282Z,62.47
2018-03-02T21:41:50.856Z,60.63
2018-03-02T21:44:18.425Z,62.70
2018-03-02T21:46:46.029Z,64.10
2018-03-02T21:49:13.602Z,65.67
2018-03-02T21:51:41.198Z,62.40
2018-03-02T21:54:08.773Z,66.03
2018-03-02T21:56:36.366Z,61.60
2018-03-02T21:59:03.935Z,60.53
2018-03-02T22:01:31.524Z,65.37
2018-03-02T22:03:59.103Z,62.93
2018-03-02T22:06:26.700Z,64.20
2018-03-02T22:08:54.273Z,60.33
2018-03-02T22:11:21.870Z,60.83
2018-03-02T22:13:49.446Z,64.30
2018-03-02T22:16:17.805Z,63.33
2018-03-02T22:18:45.381Z,60.60
2018-03-02T22:21:13.736Z,63.80
2018-03-02T22:23:41.305Z,63.30
2018-03-02T22:26:08.918Z,61.40
2018-03-02T22:28:36.482Z,59.73
2018-03-02T22:31:04.069Z,65.57
2018-03-02T22:33:31.642Z,65.20
2018-03-02T22:35:59.229Z,66.03
2018-03-02T22:38:26.806Z,62.97
2018-03-02T22:40:54.400Z,65.37
2018-03-02T22:43:21.967Z,62.80
2018-03-02T22:45:49.570Z,64.03
2018-03-02T22:48:17.136Z,63.40
2018-03-02T22:50:44.738Z,65.60
2018-03-02T22:53:12.309Z,60.70
2018-03-02T22:55:39.880Z,64.27
2018-03-02T22:58:07.464Z,63.10
2018-03-02T23:00:35.798Z,64.57
2018-03-02T23:03:03.394Z,65.63
2018-03-02T23:05:30.957Z,68.40
2018-03-02T23:07:59.321Z,66.40
2018-03-02T23:10:27.658Z,64.70
2018-03-02T23:12:55.257Z,64.60
2018-03-02T23:15:23.598Z,66.20
2018-03-02T23:17:51.189Z,66.10
2018-03-02T23:20:18.786Z,67.07
2018-03-02T23:22:46.377Z,63.67
2018-03-02T23:25:13.957Z,64.30
2018-03-02T23:27:41.553Z,64.00
2018-03-02T23:30:09.134Z,64.40
2018-03-02T23:32:36.724Z,63.60
2018-03-02T23:35:04.322Z,64.47
2018-03-02T23:37:32.681Z,60.50
2018-03-02T23:40:00.248Z,62.17
2018-03-02T23:42:27.869Z,68.00
2018-03-02T23:44:55.441Z,67.13
2018-03-02T23:47:23.034Z,61.27
2018-03-02T23:49:50.605Z,63.20
2018-03-02T23:52:18.197Z,68.17
2018-03-02T23:54:45.783Z,64.37
2018-03-02T23:57:13.377Z,64.33
2018-03-02T23:59:43.157Z,62.27
